createdAt,value
2022-10-19T00:00:00.509Z,4.55
2022-10-19T00:02:27.142Z,4.35
2022-10-19T00:04:54.770Z,5.55
2022-10-19T00:07:21.474Z,4.53
2022-10-19T00:09:48.098Z,4.93
2022-10-19T00:12:15.012Z,4.65
2022-10-19T00:14:41.678Z,4.47
2022-10-19T00:17:08.270Z,4.53
2022-10-19T00:19:35.067Z,4.28
2022-10-19T00:22:01.766Z,4.43
2022-10-19T00:24:28.393Z,4.60
2022-10-19T00:26:55.202Z,4.90
2022-10-19T00:29:22.021Z,4.38
2022-10-19T00:31:51.807Z,4.40
2022-10-19T00:34:18.771Z,4.47
2022-10-19T00:36:45.439Z,4.50
2022-10-19T00:39:15.130Z,5.55
2022-10-19T00:41:42.549Z,4.75
2022-10-19T00:44:12.265Z,4.90
2022-10-19T00:46:42.935Z,5.28
2022-10-19T00:49:17.914Z,4.40
2022-10-19T00:51:49.011Z,4.57
2022-10-19T00:54:17.746Z,4.75
2022-10-19T00:56:47.145Z,4.70
2022-10-19T00:59:16.752Z,4.15
2022-10-19T01:01:45.593Z,5.07
2022-10-19T01:04:13.387Z,4.35
2022-10-19T01:06:41.067Z,4.43
2022-10-19T01:09:09.106Z,4.05
2022-10-19T01:11:44.945Z,4.05
2022-10-19T01:17:43.275Z,4.05
2022-10-19T01:20:42.349Z,4.75
2022-10-19T01:23:42.079Z,4.35
2022-10-19T01:26:46.411Z,4.75
2022-10-19T01:29:38.193Z,4.10
2022-10-19T01:32:43.110Z,4.13
2022-10-19T01:35:40.878Z,4.18
2022-10-19T01:38:38.139Z,3.92
2022-10-19T01:41:32.172Z,4.40
2022-10-19T01:44:01.987Z,4.10
2022-10-19T01:46:40.212Z,4.47
2022-10-19T01:49:17.283Z,4.28
2022-10-19T01:51:49.766Z,4.20
2022-10-19T01:54:19.274Z,4.88
2022-10-19T01:56:49.842Z,4.65
2022-10-19T01:59:19.538Z,4.38
2022-10-19T02:01:49.406Z,4.38
2022-10-19T02:04:18.862Z,4.22
2022-10-19T02:06:46.096Z,4.70
2022-10-19T02:09:18.528Z,4.50
2022-10-19T02:11:57.362Z,4.57
2022-10-19T02:14:29.342Z,4.25
2022-10-19T02:17:09.461Z,4.20
2022-10-19T02:54:06.884Z,4.50
2022-10-19T02:56:34.767Z,4.43
2022-10-19T02:59:02.625Z,4.20
2022-10-19T03:01:29.568Z,4.57
2022-10-19T03:03:56.544Z,4.40
2022-10-19T03:06:23.219Z,4.88
2022-10-19T03:08:52.882Z,4.32
2022-10-19T03:11:19.613Z,4.45
2022-10-19T03:16:18.068Z,4.95
2022-10-19T03:18:44.725Z,4.95
2022-10-19T03:21:13.480Z,4.47
2022-10-19T03:23:41.066Z,4.40
2022-10-19T03:26:11.472Z,4.18
2022-10-19T03:28:39.125Z,3.90
2022-10-19T03:31:06.321Z,5.05
2022-10-19T03:33:32.929Z,4.57
2022-10-19T03:36:18.150Z,4.68
2022-10-19T03:38:44.952Z,4.10
2022-10-19T03:41:11.778Z,4.32
2022-10-19T03:43:38.468Z,4.32
2022-10-19T03:46:05.194Z,4.88
2022-10-19T03:48:32.960Z,4.57
2022-10-19T03:51:05.855Z,4.03
2022-10-19T03:53:33.277Z,4.20
2022-10-19T03:56:04.207Z,4.88
2022-10-19T03:58:32.808Z,5.50
2022-10-19T04:00:59.597Z,4.30
2022-10-19T04:03:26.740Z,4.57
2022-10-19T04:05:53.552Z,4.22
2022-10-19T04:08:21.291Z,4.60
2022-10-19T04:10:47.986Z,4.47
2022-10-19T04:13:14.637Z,4.80
2022-10-19T04:15:41.332Z,4.57
2022-10-19T04:18:07.996Z,4.75
2022-10-19T04:20:34.664Z,5.15
2022-10-19T04:23:01.294Z,5.03
2022-10-19T04:25:28.108Z,4.45
2022-10-19T04:27:54.765Z,5.43
2022-10-19T04:30:22.540Z,4.63
2022-10-19T04:32:49.219Z,4.30
2022-10-19T04:35:15.906Z,4.53
2022-10-19T04:37:42.605Z,5.03
2022-10-19T04:40:14.886Z,5.15
2022-10-19T04:42:41.897Z,4.40
2022-10-19T04:45:08.963Z,5.03
2022-10-19T04:47:36.042Z,4.32
2022-10-19T04:50:03.340Z,4.60
2022-10-19T04:52:30.155Z,4.80
2022-10-19T04:54:56.855Z,5.60
2022-10-19T04:57:23.556Z,4.82
2022-10-19T04:59:53.089Z,4.70
2022-10-19T05:02:19.862Z,4.93
2022-10-19T05:04:48.438Z,4.90
2022-10-19T05:07:15.117Z,4.72
2022-10-19T05:09:42.027Z,4.95
2022-10-19T05:12:08.648Z,5.50
2022-10-19T05:14:36.786Z,5.28
2022-10-19T05:17:06.059Z,5.00
2022-10-19T05:19:32.994Z,4.47
2022-10-19T05:21:59.615Z,4.93
2022-10-19T05:24:26.821Z,4.60
2022-10-19T05:26:53.558Z,5.65
2022-10-19T05:29:21.222Z,4.78
2022-10-19T05:31:47.952Z,4.43
2022-10-19T05:34:14.610Z,4.43
2022-10-19T05:36:41.471Z,4.55
2022-10-19T05:39:17.205Z,4.32
2022-10-19T05:41:45.086Z,4.90
2022-10-19T05:44:20.501Z,4.43
2022-10-19T05:46:48.248Z,4.50
2022-10-19T05:49:16.481Z,4.28
2022-10-19T05:51:43.769Z,4.43
2022-10-19T05:54:11.827Z,4.60
2022-10-19T05:56:38.687Z,4.70
2022-10-19T05:59:07.081Z,4.30
2022-10-19T06:01:35.293Z,4.70
2022-10-19T06:04:03.410Z,4.20
2022-10-19T06:06:30.926Z,4.60
2022-10-19T06:08:59.189Z,4.28
2022-10-19T06:11:31.193Z,4.80
2022-10-19T06:13:59.538Z,4.47
2022-10-19T06:16:27.647Z,4.30
2022-10-19T06:18:55.750Z,4.50
2022-10-19T06:21:25.420Z,4.85
2022-10-19T06:24:00.589Z,4.80
2022-10-19T06:26:27.808Z,4.53
2022-10-19T06:29:00.799Z,5.10
2022-10-19T06:31:32.775Z,4.72
2022-10-19T06:33:59.612Z,5.15
2022-10-19T06:36:29.137Z,4.82
2022-10-19T06:38:56.811Z,5.38
2022-10-19T06:41:23.703Z,4.85
2022-10-19T06:43:51.856Z,4.78
2022-10-19T06:46:22.279Z,5.03
2022-10-19T06:49:00.037Z,4.70
2022-10-19T06:51:29.629Z,4.80
2022-10-19T06:53:57.078Z,4.68
2022-10-19T06:56:25.509Z,5.00
2022-10-19T06:58:52.790Z,5.20
2022-10-19T07:01:19.681Z,5.80
2022-10-19T07:03:46.345Z,5.45
2022-10-19T07:06:13.572Z,6.35
2022-10-19T07:08:42.016Z,6.28
2022-10-19T07:11:11.524Z,5.35
2022-10-19T07:13:38.504Z,6.32
2022-10-19T07:16:15.913Z,6.25
2022-10-19T07:18:48.917Z,5.50
2022-10-19T07:21:16.671Z,6.40
2022-10-19T07:23:45.570Z,5.68
2022-10-19T07:26:15.926Z,5.78
2022-10-19T07:28:45.846Z,5.40
2022-10-19T07:31:15.158Z,5.65
2022-10-19T07:33:41.749Z,6.68
2022-10-19T07:36:10.210Z,5.40
2022-10-19T07:38:37.510Z,6.72
2022-10-19T07:41:06.958Z,5.75
2022-10-19T07:43:34.310Z,5.88
2022-10-19T07:46:07.411Z,5.90
2022-10-19T07:48:35.007Z,5.57
2022-10-19T07:51:04.188Z,5.63
2022-10-19T07:53:31.243Z,6.07
2022-10-19T07:56:04.755Z,5.45
2022-10-19T07:58:31.669Z,5.40
2022-10-19T08:01:10.539Z,5.30
2022-10-19T08:06:24.820Z,5.53
2022-10-19T08:08:52.341Z,6.00
2022-10-19T08:11:28.861Z,5.85
2022-10-19T08:14:00.640Z,6.03
2022-10-19T08:16:41.865Z,5.70
2022-10-19T08:19:13.957Z,4.88
2022-10-19T08:21:43.562Z,5.57
2022-10-19T08:24:14.591Z,5.10
2022-10-19T08:26:44.989Z,4.80
2022-10-19T08:29:17.131Z,4.35
2022-10-19T08:31:46.124Z,4.60
2022-10-19T08:34:13.911Z,4.53
2022-10-19T08:39:10.068Z,4.40
2022-10-19T08:41:43.128Z,4.18
2022-10-19T08:44:34.708Z,4.38
2022-10-19T08:47:14.246Z,4.13
2022-10-19T08:49:41.770Z,4.28
2022-10-19T08:52:15.645Z,3.72
2022-10-19T08:54:55.783Z,3.83
2022-10-19T08:57:45.732Z,3.65
2022-10-19T09:00:18.340Z,3.30
2022-10-19T09:03:04.284Z,4.15
2022-10-19T09:05:53.714Z,3.95
2022-10-19T09:08:21.584Z,4.63
2022-10-19T09:10:52.811Z,3.40
2022-10-19T09:16:04.309Z,3.50
2022-10-19T11:07:32.880Z,2.23
2022-10-19T11:46:29.912Z,1.83
2022-10-19T11:48:59.865Z,1.88
2022-10-19T11:51:32.284Z,1.45
2022-10-19T12:35:48.115Z,1.90
2022-10-19T12:38:52.389Z,1.50
2022-10-19T12:41:45.074Z,1.80
2022-10-19T12:49:26.573Z,1.50
2022-10-19T15:08:31.483Z,1.20
2022-10-19T15:11:01.772Z,1.05
